sensor_id;sensor_type;location;lat;lon;timestamp;temperature;humidity
20204;DHT22;10261;49.010;12.034;2022-10-13T00:00:03;12.80;99.90
20204;DHT22;10261;49.010;12.034;2022-10-13T00:01:07;12.80;99.90
20204;DHT22;10261;49.010;12.034;2022-10-13T00:02:10;12.70;99.90
20204;DHT22;10261;49.010;12.034;2022-10-13T00:03:13;12.60;99.90
20204;DHT22;10261;49.010;12.034;2022-10-13T00:04:15;12.60;99.90
20204;DHT22;10261;49.010;12.034;2022-10-13T00:05:18;12.60;99.90
20204;DHT22;10261;49.010;12.034;2022-10-13T00:06:23;12.50;99.90
20204;DHT22;10261;49.010;12.034;2022-10-13T00:07:28;12.60;99.90
20204;DHT22;10261;49.010;12.034;2022-10-13T00:08:30;12.60;99.90
20204;DHT22;10261;49.010;12.034;2022-10-13T00:09:33;12.50;99.90
20204;DHT22;10261;49.010;12.034;2022-10-13T00:10:36;12.50;99.90
20204;DHT22;10261;49.010;12.034;2022-10-13T00:11:39;12.50;99.90
20204;DHT22;10261;49.010;12.034;2022-10-13T00:12:42;12.50;99.90
20204;DHT22;10261;49.010;12.034;2022-10-13T00:13:44;12.60;99.90
20204;DHT22;10261;49.010;12.034;2022-10-13T00:14:48;12.60;99.90
20204;DHT22;10261;49.010;12.034;2022-10-13T00:15:49;12.60;99.90
20204;DHT22;10261;49.010;12.034;2022-10-13T00:16:52;12.60;99.90
20204;DHT22;10261;49.010;12.034;2022-10-13T00:17:54;12.70;99.90
20204;DHT22;10261;49.010;12.034;2022-10-13T00:18:58;12.60;99.90
20204;DHT22;10261;49.010;12.034;2022-10-13T00:20:00;12.60;99.90
20204;DHT22;10261;49.010;12.034;2022-10-13T00:21:06;12.60;99.90
20204;DHT22;10261;49.010;12.034;2022-10-13T00:22:08;12.60;99.90
20204;DHT22;10261;49.010;12.034;2022-10-13T00:23:13;12.70;99.90
20204;DHT22;10261;49.010;12.034;2022-10-13T00:24:15;12.60;99.90
20204;DHT22;10261;49.010;12.034;2022-10-13T00:25:18;12.70;99.90
20204;DHT22;10261;49.010;12.034;2022-10-13T00:26:22;12.70;99.90
20204;DHT22;10261;49.010;12.034;2022-10-13T00:27:25;12.80;99.90
20204;DHT22;10261;49.010;12.034;2022-10-13T00:28:27;12.70;99.90
20204;DHT22;10261;49.010;12.034;2022-10-13T00:29:30;12.70;99.90
20204;DHT22;10261;49.010;12.034;2022-10-13T00:30:33;12.60;99.90
20204;DHT22;10261;49.010;12.034;2022-10-13T00:31:36;12.70;99.90
20204;DHT22;10261;49.010;12.034;2022-10-13T00:32:38;12.70;99.90
20204;DHT22;10261;49.010;12.034;2022-10-13T00:33:41;12.60;99.90
20204;DHT22;10261;49.010;12.034;2022-10-13T00:34:43;12.60;99.90
20204;DHT22;10261;49.010;12.034;2022-10-13T00:35:47;12.60;99.90
20204;DHT22;10261;49.010;12.034;2022-10-13T00:36:49;12.60;99.90
20204;DHT22;10261;49.010;12.034;2022-10-13T00:37:52;12.60;99.90
20204;DHT22;10261;49.010;12.034;2022-10-13T00:38:56;12.60;99.90
20204;DHT22;10261;49.010;12.034;2022-10-13T00:39:59;12.60;99.90
20204;DHT22;10261;49.010;12.034;2022-10-13T00:41:00;12.60;99.90
20204;DHT22;10261;49.010;12.034;2022-10-13T00:42:05;12.50;99.90
20204;DHT22;10261;49.010;12.034;2022-10-13T00:43:15;12.50;99.90
20204;DHT22;10261;49.010;12.034;2022-10-13T00:45:57;12.50;99.90
20204;DHT22;10261;49.010;12.034;2022-10-13T00:47:00;12.50;99.90
20204;DHT22;10261;49.010;12.034;2022-10-13T00:48:03;12.50;99.90
20204;DHT22;10261;49.010;12.034;2022-10-13T00:49:08;12.40;99.90
20204;DHT22;10261;49.010;12.034;2022-10-13T00:50:16;12.40;99.90
20204;DHT22;10261;49.010;12.034;2022-10-13T00:51:22;12.40;99.90
20204;DHT22;10261;49.010;12.034;2022-10-13T00:52:25;12.40;99.90
20204;DHT22;10261;49.010;12.034;2022-10-13T00:53:31;12.40;99.90
20204;DHT22;10261;49.010;12.034;2022-10-13T00:54:35;12.50;99.90
20204;DHT22;10261;49.010;12.034;2022-10-13T00:55:39;12.50;99.90
20204;DHT22;10261;49.010;12.034;2022-10-13T00:56:43;12.40;99.90
20204;DHT22;10261;49.010;12.034;2022-10-13T00:57:49;12.50;99.90
20204;DHT22;10261;49.010;12.034;2022-10-13T00:58:55;12.50;99.90
20204;DHT22;10261;49.010;12.034;2022-10-13T00:59:59;12.50;99.90
20204;DHT22;10261;49.010;12.034;2022-10-13T01:01:03;12.50;99.90
20204;DHT22;10261;49.010;12.034;2022-10-13T01:02:07;12.50;99.90
20204;DHT22;10261;49.010;12.034;2022-10-13T01:03:09;12.40;99.90
20204;DHT22;10261;49.010;12.034;2022-10-13T01:04:14;12.50;99.90
20204;DHT22;10261;49.010;12.034;2022-10-13T01:05:17;12.50;99.90
20204;DHT22;10261;49.010;12.034;2022-10-13T01:06:46;12.40;99.90
20204;DHT22;10261;49.010;12.034;2022-10-13T01:07:51;12.40;99.90
20204;DHT22;10261;49.010;12.034;2022-10-13T01:08:53;12.40;99.90
20204;DHT22;10261;49.010;12.034;2022-10-13T01:09:58;12.40;99.90
20204;DHT22;10261;49.010;12.034;2022-10-13T01:11:17;12.30;99.90
20204;DHT22;10261;49.010;12.034;2022-10-13T01:12:31;12.30;99.90
20204;DHT22;10261;49.010;12.034;2022-10-13T01:13:39;12.20;99.90
20204;DHT22;10261;49.010;12.034;2022-10-13T01:14:48;12.30;99.90
20204;DHT22;10261;49.010;12.034;2022-10-13T01:15:56;12.30;99.90
20204;DHT22;10261;49.010;12.034;2022-10-13T01:17:07;12.30;99.90
20204;DHT22;10261;49.010;12.034;2022-10-13T01:18:19;12.30;99.90
20204;DHT22;10261;49.010;12.034;2022-10-13T01:19:46;12.20;99.90
20204;DHT22;10261;49.010;12.034;2022-10-13T01:21:15;12.20;99.90
20204;DHT22;10261;49.010;12.034;2022-10-13T01:22:36;12.20;99.90
20204;DHT22;10261;49.010;12.034;2022-10-13T01:25:32;12.20;99.90
20204;DHT22;10261;49.010;12.034;2022-10-13T01:26:53;12.30;99.90
20204;DHT22;10261;49.010;12.034;2022-10-13T01:28:16;12.50;99.90
20204;DHT22;10261;49.010;12.034;2022-10-13T01:29:44;12.30;99.90
20204;DHT22;10261;49.010;12.034;2022-10-13T01:30:51;12.30;99.90
20204;DHT22;10261;49.010;12.034;2022-10-13T01:32:01;12.40;99.90
20204;DHT22;10261;49.010;12.034;2022-10-13T01:33:16;12.40;99.90
20204;DHT22;10261;49.010;12.034;2022-10-13T01:34:28;12.40;99.90
20204;DHT22;10261;49.010;12.034;2022-10-13T01:35:46;12.40;99.90
20204;DHT22;10261;49.010;12.034;2022-10-13T01:36:57;12.40;99.90
20204;DHT22;10261;49.010;12.034;2022-10-13T01:38:07;12.40;99.90
20204;DHT22;10261;49.010;12.034;2022-10-13T01:39:16;12.40;99.90
20204;DHT22;10261;49.010;12.034;2022-10-13T01:40:25;12.40;99.90
20204;DHT22;10261;49.010;12.034;2022-10-13T01:41:32;12.50;99.90
20204;DHT22;10261;49.010;12.034;2022-10-13T01:42:39;12.40;99.90
20204;DHT22;10261;49.010;12.034;2022-10-13T01:43:46;12.50;99.90
20204;DHT22;10261;49.010;12.034;2022-10-13T01:44:53;12.40;99.90
20204;DHT22;10261;49.010;12.034;2022-10-13T01:46:01;12.40;99.90
20204;DHT22;10261;49.010;12.034;2022-10-13T01:47:05;12.40;99.90
20204;DHT22;10261;49.010;12.034;2022-10-13T01:48:10;12.50;99.90
20204;DHT22;10261;49.010;12.034;2022-10-13T01:49:14;12.50;99.90
20204;DHT22;10261;49.010;12.034;2022-10-13T01:50:18;12.50;99.90
20204;DHT22;10261;49.010;12.034;2022-10-13T01:51:22;12.50;99.90
20204;DHT22;10261;49.010;12.034;2022-10-13T01:52:32;14.60;99.90
20204;DHT22;10261;49.010;12.034;2022-10-13T01:53:35;12.50;99.90
20204;DHT22;10261;49.010;12.034;2022-10-13T01:54:38;12.50;99.90
20204;DHT22;10261;49.010;12.034;2022-10-13T01:55:48;12.60;99.90
20204;DHT22;10261;49.010;12.034;2022-10-13T01:56:52;12.60;99.90
20204;DHT22;10261;49.010;12.034;2022-10-13T01:57:54;12.70;99.90
20204;DHT22;10261;49.010;12.034;2022-10-13T01:59:00;12.60;99.90
20204;DHT22;10261;49.010;12.034;2022-10-13T02:00:07;12.60;99.90
20204;DHT22;10261;49.010;12.034;2022-10-13T02:01:26;12.60;99.90
20204;DHT22;10261;49.010;12.034;2022-10-13T02:02:36;12.60;99.90
20204;DHT22;10261;49.010;12.034;2022-10-13T02:03:52;12.60;99.90
20204;DHT22;10261;49.010;12.034;2022-10-13T02:05:08;12.60;99.90
20204;DHT22;10261;49.010;12.034;2022-10-13T02:06:18;12.60;99.90
20204;DHT22;10261;49.010;12.034;2022-10-13T02:07:27;12.60;99.90
20204;DHT22;10261;49.010;12.034;2022-10-13T02:08:35;12.70;99.90
20204;DHT22;10261;49.010;12.034;2022-10-13T02:09:42;12.60;99.90
20204;DHT22;10261;49.010;12.034;2022-10-13T02:10:53;12.60;99.90
20204;DHT22;10261;49.010;12.034;2022-10-13T02:12:02;12.60;99.90
20204;DHT22;10261;49.010;12.034;2022-10-13T02:13:09;12.60;99.90
20204;DHT22;10261;49.010;12.034;2022-10-13T02:14:15;12.60;99.90
20204;DHT22;10261;49.010;12.034;2022-10-13T02:15:26;12.60;99.90
20204;DHT22;10261;49.010;12.034;2022-10-13T02:16:33;12.70;99.90
20204;DHT22;10261;49.010;12.034;2022-10-13T02:17:36;12.70;99.90
20204;DHT22;10261;49.010;12.034;2022-10-13T02:18:39;12.70;99.90
20204;DHT22;10261;49.010;12.034;2022-10-13T02:19:43;12.70;99.90
20204;DHT22;10261;49.010;12.034;2022-10-13T02:20:46;12.70;99.90
20204;DHT22;10261;49.010;12.034;2022-10-13T02:21:50;12.60;99.90
20204;DHT22;10261;49.010;12.034;2022-10-13T02:22:56;12.60;99.90
20204;DHT22;10261;49.010;12.034;2022-10-13T02:24:03;12.60;99.90
20204;DHT22;10261;49.010;12.034;2022-10-13T02:25:07;12.60;99.90
20204;DHT22;10261;49.010;12.034;2022-10-13T02:26:10;12.60;99.90
20204;DHT22;10261;49.010;12.034;2022-10-13T02:27:13;12.60;99.90
20204;DHT22;10261;49.010;12.034;2022-10-13T02:28:17;12.60;99.90
20204;DHT22;10261;49.010;12.034;2022-10-13T02:29:20;12.50;99.90
20204;DHT22;10261;49.010;12.034;2022-10-13T02:30:26;12.60;99.90
20204;DHT22;10261;49.010;12.034;2022-10-13T02:31:28;12.60;99.90
20204;DHT22;10261;49.010;12.034;2022-10-13T02:32:31;12.60;99.90
20204;DHT22;10261;49.010;12.034;2022-10-13T02:33:34;12.60;99.90
20204;DHT22;10261;49.010;12.034;2022-10-13T02:34:36;12.60;99.90
20204;DHT22;10261;49.010;12.034;2022-10-13T02:35:38;12.70;99.90
20204;DHT22;10261;49.010;12.034;2022-10-13T02:36:41;12.70;99.90
20204;DHT22;10261;49.010;12.034;2022-10-13T02:37:43;12.70;99.90
20204;DHT22;10261;49.010;12.034;2022-10-13T02:38:46;12.70;99.90
20204;DHT22;10261;49.010;12.034;2022-10-13T02:39:48;12.70;99.90
20204;DHT22;10261;49.010;12.034;2022-10-13T02:40:51;12.80;99.90
20204;DHT22;10261;49.010;12.034;2022-10-13T02:41:55;12.70;99.90
20204;DHT22;10261;49.010;12.034;2022-10-13T02:42:58;12.80;99.90
20204;DHT22;10261;49.010;12.034;2022-10-13T02:44:00;12.70;99.90
20204;DHT22;10261;49.010;12.034;2022-10-13T02:45:03;12.70;99.90
20204;DHT22;10261;49.010;12.034;2022-10-13T02:46:07;12.70;99.90
20204;DHT22;10261;49.010;12.034;2022-10-13T02:47:10;12.70;99.90
20204;DHT22;10261;49.010;12.034;2022-10-13T02:48:12;12.60;99.90
20204;DHT22;10261;49.010;12.034;2022-10-13T02:49:15;12.60;99.90
20204;DHT22;10261;49.010;12.034;2022-10-13T02:50:17;12.60;99.90
20204;DHT22;10261;49.010;12.034;2022-10-13T02:51:20;12.60;99.90
20204;DHT22;10261;49.010;12.034;2022-10-13T02:52:22;12.60;99.90
20204;DHT22;10261;49.010;12.034;2022-10-13T02:53:25;12.60;99.90
20204;DHT22;10261;49.010;12.034;2022-10-13T02:54:27;12.60;99.90
20204;DHT22;10261;49.010;12.034;2022-10-13T02:55:30;12.70;99.90
20204;DHT22;10261;49.010;12.034;2022-10-13T02:56:31;12.70;99.90
20204;DHT22;10261;49.010;12.034;2022-10-13T02:57:35;12.70;99.90
20204;DHT22;10261;49.010;12.034;2022-10-13T02:58:36;12.70;99.90
20204;DHT22;10261;49.010;12.034;2022-10-13T02:59:39;12.70;99.90
20204;DHT22;10261;49.010;12.034;2022-10-13T03:00:41;12.70;99.90
20204;DHT22;10261;49.010;12.034;2022-10-13T03:01:46;12.60;99.90
20204;DHT22;10261;49.010;12.034;2022-10-13T03:02:48;12.60;99.90
20204;DHT22;10261;49.010;12.034;2022-10-13T03:03:51;12.60;99.90
20204;DHT22;10261;49.010;12.034;2022-10-13T03:04:53;12.60;99.90
20204;DHT22;10261;49.010;12.034;2022-10-13T03:05:56;12.60;99.90
20204;DHT22;10261;49.010;12.034;2022-10-13T03:06:58;12.70;99.90
20204;DHT22;10261;49.010;12.034;2022-10-13T03:08:01;12.70;99.90
20204;DHT22;10261;49.010;12.034;2022-10-13T03:09:03;12.60;99.90
20204;DHT22;10261;49.010;12.034;2022-10-13T03:10:07;12.60;99.90
20204;DHT22;10261;49.010;12.034;2022-10-13T03:11:08;12.60;99.90
20204;DHT22;10261;49.010;12.034;2022-10-13T03:12:12;12.70;99.90
20204;DHT22;10261;49.010;12.034;2022-10-13T03:13:14;12.60;99.90
20204;DHT22;10261;49.010;12.034;2022-10-13T03:14:17;12.60;99.90
20204;DHT22;10261;49.010;12.034;2022-10-13T03:15:19;12.70;99.90
20204;DHT22;10261;49.010;12.034;2022-10-13T03:16:21;12.60;99.90
20204;DHT22;10261;49.010;12.034;2022-10-13T03:17:25;12.60;99.90
20204;DHT22;10261;49.010;12.034;2022-10-13T03:18:28;12.60;99.90
20204;DHT22;10261;49.010;12.034;2022-10-13T03:19:30;12.60;99.90
20204;DHT22;10261;49.010;12.034;2022-10-13T03:20:34;12.70;99.90
20204;DHT22;10261;49.010;12.034;2022-10-13T03:21:36;12.70;99.90
20204;DHT22;10261;49.010;12.034;2022-10-13T03:22:39;12.80;99.90
20204;DHT22;10261;49.010;12.034;2022-10-13T03:23:44;12.80;99.90
20204;DHT22;10261;49.010;12.034;2022-10-13T03:24:47;12.90;99.90
20204;DHT22;10261;49.010;12.034;2022-10-13T03:25:49;13.00;99.90
20204;DHT22;10261;49.010;12.034;2022-10-13T03:26:52;12.80;99.90
20204;DHT22;10261;49.010;12.034;2022-10-13T03:27:54;12.80;99.90
20204;DHT22;10261;49.010;12.034;2022-10-13T03:28:58;12.80;99.90
20204;DHT22;10261;49.010;12.034;2022-10-13T03:30:00;12.80;99.90
20204;DHT22;10261;49.010;12.034;2022-10-13T03:31:04;12.90;99.90
20204;DHT22;10261;49.010;12.034;2022-10-13T03:32:06;12.90;99.90
20204;DHT22;10261;49.010;12.034;2022-10-13T03:33:11;12.80;99.90
20204;DHT22;10261;49.010;12.034;2022-10-13T03:34:15;12.90;99.90
20204;DHT22;10261;49.010;12.034;2022-10-13T03:35:18;12.90;99.90
20204;DHT22;10261;49.010;12.034;2022-10-13T03:36:19;12.90;99.90
20204;DHT22;10261;49.010;12.034;2022-10-13T03:37:22;12.90;99.90
20204;DHT22;10261;49.010;12.034;2022-10-13T03:38:25;12.90;99.90
20204;DHT22;10261;49.010;12.034;2022-10-13T03:39:28;12.90;99.90
20204;DHT22;10261;49.010;12.034;2022-10-13T03:40:31;12.90;99.90
20204;DHT22;10261;49.010;12.034;2022-10-13T03:41:33;12.90;99.90
20204;DHT22;10261;49.010;12.034;2022-10-13T03:42:36;12.80;99.90
20204;DHT22;10261;49.010;12.034;2022-10-13T03:43:38;12.80;99.90
20204;DHT22;10261;49.010;12.034;2022-10-13T03:44:41;12.90;99.90
20204;DHT22;10261;49.010;12.034;2022-10-13T03:45:43;12.90;99.90
20204;DHT22;10261;49.010;12.034;2022-10-13T03:46:46;12.90;99.90
20204;DHT22;10261;49.010;12.034;2022-10-13T03:47:48;12.90;99.90
20204;DHT22;10261;49.010;12.034;2022-10-13T03:48:53;13.00;99.90
20204;DHT22;10261;49.010;12.034;2022-10-13T03:49:56;13.00;99.90
20204;DHT22;10261;49.010;12.034;2022-10-13T03:50:58;12.90;99.90
20204;DHT22;10261;49.010;12.034;2022-10-13T03:52:00;12.90;99.90
20204;DHT22;10261;49.010;12.034;2022-10-13T03:53:03;12.90;99.90
20204;DHT22;10261;49.010;12.034;2022-10-13T03:54:05;12.90;99.90
20204;DHT22;10261;49.010;12.034;2022-10-13T03:55:09;12.80;99.90
20204;DHT22;10261;49.010;12.034;2022-10-13T03:56:14;12.90;99.90
20204;DHT22;10261;49.010;12.034;2022-10-13T03:57:18;12.90;99.90
20204;DHT22;10261;49.010;12.034;2022-10-13T03:58:20;12.90;99.90
20204;DHT22;10261;49.010;12.034;2022-10-13T03:59:25;12.90;99.90
20204;DHT22;10261;49.010;12.034;2022-10-13T04:00:28;12.90;99.90
20204;DHT22;10261;49.010;12.034;2022-10-13T04:01:32;12.90;99.90
20204;DHT22;10261;49.010;12.034;2022-10-13T04:02:34;12.90;99.90
20204;DHT22;10261;49.010;12.034;2022-10-13T04:03:37;12.90;99.90
20204;DHT22;10261;49.010;12.034;2022-10-13T04:04:40;12.90;99.90
20204;DHT22;10261;49.010;12.034;2022-10-13T04:05:43;12.90;99.90
20204;DHT22;10261;49.010;12.034;2022-10-13T04:06:45;12.90;99.90
20204;DHT22;10261;49.010;12.034;2022-10-13T04:07:48;12.90;99.90
20204;DHT22;10261;49.010;12.034;2022-10-13T04:08:50;12.80;99.90
20204;DHT22;10261;49.010;12.034;2022-10-13T04:09:53;12.80;99.90
20204;DHT22;10261;49.010;12.034;2022-10-13T04:11:00;12.80;99.90
20204;DHT22;10261;49.010;12.034;2022-10-13T04:12:02;12.80;99.90
20204;DHT22;10261;49.010;12.034;2022-10-13T04:13:05;12.80;99.90
20204;DHT22;10261;49.010;12.034;2022-10-13T04:14:07;12.80;99.90
20204;DHT22;10261;49.010;12.034;2022-10-13T04:15:10;12.90;99.90
20204;DHT22;10261;49.010;12.034;2022-10-13T04:16:14;12.90;99.90
20204;DHT22;10261;49.010;12.034;2022-10-13T04:17:17;12.90;99.90
20204;DHT22;10261;49.010;12.034;2022-10-13T04:18:19;13.00;99.90
20204;DHT22;10261;49.010;12.034;2022-10-13T04:19:23;13.00;99.90
20204;DHT22;10261;49.010;12.034;2022-10-13T04:20:27;13.00;99.90
20204;DHT22;10261;49.010;12.034;2022-10-13T04:21:30;13.00;99.90
20204;DHT22;10261;49.010;12.034;2022-10-13T04:22:34;12.90;99.90
20204;DHT22;10261;49.010;12.034;2022-10-13T04:23:36;13.10;99.90
20204;DHT22;10261;49.010;12.034;2022-10-13T04:24:39;12.90;99.90
20204;DHT22;10261;49.010;12.034;2022-10-13T04:25:42;12.90;99.90
20204;DHT22;10261;49.010;12.034;2022-10-13T04:26:44;10.90;99.90
20204;DHT22;10261;49.010;12.034;2022-10-13T04:27:47;12.90;99.90
20204;DHT22;10261;49.010;12.034;2022-10-13T04:28:52;12.90;99.90
20204;DHT22;10261;49.010;12.034;2022-10-13T04:29:56;13.00;99.90
20204;DHT22;10261;49.010;12.034;2022-10-13T04:30:58;12.90;99.90
20204;DHT22;10261;49.010;12.034;2022-10-13T04:32:01;12.90;99.90
20204;DHT22;10261;49.010;12.034;2022-10-13T04:33:03;12.90;99.90
20204;DHT22;10261;49.010;12.034;2022-10-13T04:34:06;12.90;99.90
20204;DHT22;10261;49.010;12.034;2022-10-13T04:35:08;12.90;99.90
20204;DHT22;10261;49.010;12.034;2022-10-13T04:36:13;12.90;99.90
20204;DHT22;10261;49.010;12.034;2022-10-13T04:37:15;12.90;99.90
20204;DHT22;10261;49.010;12.034;2022-10-13T04:38:18;12.90;99.90
20204;DHT22;10261;49.010;12.034;2022-10-13T04:39:20;12.90;99.90
20204;DHT22;10261;49.010;12.034;2022-10-13T04:40:23;12.90;99.90
20204;DHT22;10261;49.010;12.034;2022-10-13T04:41:25;12.90;99.90
20204;DHT22;10261;49.010;12.034;2022-10-13T04:42:28;12.90;99.90
20204;DHT22;10261;49.010;12.034;2022-10-13T04:43:31;12.90;99.90
20204;DHT22;10261;49.010;12.034;2022-10-13T04:44:34;13.00;99.90
20204;DHT22;10261;49.010;12.034;2022-10-13T04:45:37;13.00;99.90
20204;DHT22;10261;49.010;12.034;2022-10-13T04:46:39;13.00;99.90
20204;DHT22;10261;49.010;12.034;2022-10-13T04:47:42;13.00;99.90
20204;DHT22;10261;49.010;12.034;2022-10-13T04:48:44;12.90;99.90
20204;DHT22;10261;49.010;12.034;2022-10-13T04:49:47;13.00;99.90
20204;DHT22;10261;49.010;12.034;2022-10-13T04:50:57;12.90;99.90
20204;DHT22;10261;49.010;12.034;2022-10-13T04:52:02;12.80;99.90
20204;DHT22;10261;49.010;12.034;2022-10-13T04:53:04;12.90;99.90
20204;DHT22;10261;49.010;12.034;2022-10-13T04:54:07;12.80;99.90
20204;DHT22;10261;49.010;12.034;2022-10-13T04:55:09;12.90;99.90
20204;DHT22;10261;49.010;12.034;2022-10-13T04:56:14;12.90;99.90
20204;DHT22;10261;49.010;12.034;2022-10-13T04:57:16;12.90;99.90
20204;DHT22;10261;49.010;12.034;2022-10-13T04:58:19;12.90;99.90
20204;DHT22;10261;49.010;12.034;2022-10-13T04:59:21;12.90;99.90
20204;DHT22;10261;49.010;12.034;2022-10-13T05:00:24;12.90;99.90
20204;DHT22;10261;49.010;12.034;2022-10-13T05:01:26;12.90;99.90
20204;DHT22;10261;49.010;12.034;2022-10-13T05:02:29;12.60;99.90
20204;DHT22;10261;49.010;12.034;2022-10-13T05:03:31;12.90;99.90
20204;DHT22;10261;49.010;12.034;2022-10-13T05:04:34;13.00;99.90
20204;DHT22;10261;49.010;12.034;2022-10-13T05:05:37;12.90;99.90
20204;DHT22;10261;49.010;12.034;2022-10-13T05:06:41;12.90;99.90
20204;DHT22;10261;49.010;12.034;2022-10-13T05:08:04;13.00;99.90
20204;DHT22;10261;49.010;12.034;2022-10-13T05:09:09;12.90;99.90
20204;DHT22;10261;49.010;12.034;2022-10-13T05:10:14;12.90;99.90
20204;DHT22;10261;49.010;12.034;2022-10-13T05:11:17;13.00;99.90
20204;DHT22;10261;49.010;12.034;2022-10-13T05:12:21;13.00;99.90
20204;DHT22;10261;49.010;12.034;2022-10-13T05:13:25;12.90;99.90
20204;DHT22;10261;49.010;12.034;2022-10-13T05:14:27;13.00;99.90
20204;DHT22;10261;49.010;12.034;2022-10-13T05:15:31;13.00;99.90
20204;DHT22;10261;49.010;12.034;2022-10-13T05:16:33;13.00;99.90
20204;DHT22;10261;49.010;12.034;2022-10-13T05:17:36;13.00;99.90
20204;DHT22;10261;49.010;12.034;2022-10-13T05:18:38;13.00;99.90
20204;DHT22;10261;49.010;12.034;2022-10-13T05:19:41;12.90;99.90
20204;DHT22;10261;49.010;12.034;2022-10-13T05:20:43;12.90;99.90
20204;DHT22;10261;49.010;12.034;2022-10-13T05:21:47;13.00;99.90
20204;DHT22;10261;49.010;12.034;2022-10-13T05:22:49;13.00;99.90
20204;DHT22;10261;49.010;12.034;2022-10-13T05:23:54;13.00;99.90
20204;DHT22;10261;49.010;12.034;2022-10-13T05:24:56;13.00;99.90
20204;DHT22;10261;49.010;12.034;2022-10-13T05:26:01;13.00;99.90
20204;DHT22;10261;49.010;12.034;2022-10-13T05:27:04;13.00;99.90
20204;DHT22;10261;49.010;12.034;2022-10-13T05:28:07;13.00;99.90
20204;DHT22;10261;49.010;12.034;2022-10-13T05:29:09;13.00;99.90
20204;DHT22;10261;49.010;12.034;2022-10-13T05:30:12;13.00;99.90
20204;DHT22;10261;49.010;12.034;2022-10-13T05:31:16;13.00;99.90
20204;DHT22;10261;49.010;12.034;2022-10-13T05:32:19;13.00;99.90
20204;DHT22;10261;49.010;12.034;2022-10-13T05:33:22;13.10;99.90
20204;DHT22;10261;49.010;12.034;2022-10-13T05:34:25;13.10;99.90
20204;DHT22;10261;49.010;12.034;2022-10-13T05:35:27;13.10;99.90
20204;DHT22;10261;49.010;12.034;2022-10-13T05:36:32;13.10;99.90
20204;DHT22;10261;49.010;12.034;2022-10-13T05:37:35;13.10;99.90
20204;DHT22;10261;49.010;12.034;2022-10-13T05:38:38;13.00;99.90
20204;DHT22;10261;49.010;12.034;2022-10-13T05:39:41;13.10;99.90
20204;DHT22;10261;49.010;12.034;2022-10-13T05:40:44;13.10;99.90
20204;DHT22;10261;49.010;12.034;2022-10-13T05:41:46;13.10;99.90
20204;DHT22;10261;49.010;12.034;2022-10-13T05:42:49;13.10;99.90
20204;DHT22;10261;49.010;12.034;2022-10-13T05:43:54;13.10;99.90
20204;DHT22;10261;49.010;12.034;2022-10-13T05:44:59;13.10;99.90
20204;DHT22;10261;49.010;12.034;2022-10-13T05:46:01;13.10;99.90
20204;DHT22;10261;49.010;12.034;2022-10-13T05:47:04;13.10;99.90
20204;DHT22;10261;49.010;12.034;2022-10-13T05:48:08;13.20;99.90
20204;DHT22;10261;49.010;12.034;2022-10-13T05:49:11;13.20;99.90
20204;DHT22;10261;49.010;12.034;2022-10-13T05:50:13;13.20;99.90
20204;DHT22;10261;49.010;12.034;2022-10-13T05:51:19;13.20;99.90
20204;DHT22;10261;49.010;12.034;2022-10-13T05:52:24;15.30;99.90
20204;DHT22;10261;49.010;12.034;2022-10-13T05:53:29;13.20;99.90
20204;DHT22;10261;49.010;12.034;2022-10-13T05:54:36;13.20;99.90
20204;DHT22;10261;49.010;12.034;2022-10-13T05:55:40;13.30;99.90
20204;DHT22;10261;49.010;12.034;2022-10-13T05:56:46;13.30;99.90
20204;DHT22;10261;49.010;12.034;2022-10-13T05:57:50;13.30;99.90
20204;DHT22;10261;49.010;12.034;2022-10-13T05:58:58;13.30;99.90
20204;DHT22;10261;49.010;12.034;2022-10-13T06:00:03;13.30;99.90
20204;DHT22;10261;49.010;12.034;2022-10-13T06:01:07;13.30;99.90
20204;DHT22;10261;49.010;12.034;2022-10-13T06:02:13;13.30;99.90
20204;DHT22;10261;49.010;12.034;2022-10-13T06:03:19;13.30;99.90
20204;DHT22;10261;49.010;12.034;2022-10-13T06:04:25;13.30;99.90
20204;DHT22;10261;49.010;12.034;2022-10-13T06:05:31;13.30;99.90
20204;DHT22;10261;49.010;12.034;2022-10-13T06:06:35;13.30;99.90
20204;DHT22;10261;49.010;12.034;2022-10-13T06:07:37;13.30;99.90
20204;DHT22;10261;49.010;12.034;2022-10-13T06:08:40;13.40;99.90
20204;DHT22;10261;49.010;12.034;2022-10-13T06:09:43;13.40;99.90
20204;DHT22;10261;49.010;12.034;2022-10-13T06:10:48;13.40;99.90
20204;DHT22;10261;49.010;12.034;2022-10-13T06:11:51;13.40;99.90
20204;DHT22;10261;49.010;12.034;2022-10-13T06:12:52;13.40;99.90
20204;DHT22;10261;49.010;12.034;2022-10-13T06:13:55;13.40;99.90
20204;DHT22;10261;49.010;12.034;2022-10-13T06:14:57;13.40;99.90
20204;DHT22;10261;49.010;12.034;2022-10-13T06:16:00;13.50;99.90
20204;DHT22;10261;49.010;12.034;2022-10-13T06:17:02;13.50;99.90
20204;DHT22;10261;49.010;12.034;2022-10-13T06:18:06;13.50;99.90
20204;DHT22;10261;49.010;12.034;2022-10-13T06:19:09;13.50;99.90
20204;DHT22;10261;49.010;12.034;2022-10-13T06:20:11;13.50;99.90
20204;DHT22;10261;49.010;12.034;2022-10-13T06:21:14;13.50;99.90
20204;DHT22;10261;49.010;12.034;2022-10-13T06:22:16;13.50;99.90
20204;DHT22;10261;49.010;12.034;2022-10-13T06:23:20;13.50;99.90
20204;DHT22;10261;49.010;12.034;2022-10-13T06:24:22;13.60;99.90
20204;DHT22;10261;49.010;12.034;2022-10-13T06:25:25;13.50;99.90
20204;DHT22;10261;49.010;12.034;2022-10-13T06:26:28;13.50;99.90
20204;DHT22;10261;49.010;12.034;2022-10-13T06:27:31;13.50;99.90
20204;DHT22;10261;49.010;12.034;2022-10-13T06:28:34;13.50;99.90
20204;DHT22;10261;49.010;12.034;2022-10-13T06:29:37;13.50;99.90
20204;DHT22;10261;49.010;12.034;2022-10-13T06:30:40;13.60;99.90
20204;DHT22;10261;49.010;12.034;2022-10-13T06:31:44;13.50;99.90
20204;DHT22;10261;49.010;12.034;2022-10-13T06:32:47;13.50;99.90
20204;DHT22;10261;49.010;12.034;2022-10-13T06:33:49;13.60;99.90
20204;DHT22;10261;49.010;12.034;2022-10-13T06:34:53;13.50;99.90
20204;DHT22;10261;49.010;12.034;2022-10-13T06:35:55;13.50;99.90
20204;DHT22;10261;49.010;12.034;2022-10-13T06:36:58;13.50;99.90
20204;DHT22;10261;49.010;12.034;2022-10-13T06:37:59;13.50;99.90
20204;DHT22;10261;49.010;12.034;2022-10-13T06:39:02;13.60;99.90
20204;DHT22;10261;49.010;12.034;2022-10-13T06:40:06;13.50;99.90
20204;DHT22;10261;49.010;12.034;2022-10-13T06:41:09;13.50;99.90
20204;DHT22;10261;49.010;12.034;2022-10-13T06:42:13;13.50;99.90
20204;DHT22;10261;49.010;12.034;2022-10-13T06:43:16;13.50;99.90